Time;durP1;ratioP1;P1;durP2;ratioP2;P2;SDS_P1;SDS_P2;PMS_P1;PMS_P2;Temp;Humidity;BMP_temperature;BMP_pressure;BME280_temperature;BME280_humidity;BME280_pressure;Samples;Min_cycle;Max_cycle;Signal;HPM_P1;HPM_P2
2022/04/19 00:00:16;;;;;;;;;;;;;;;5.18;55.04;97740.69;1685478;84;26186;-85
2022/04/19 00:02:44;;;;;;;;;;;;;;;5.21;55.25;97734.47;1703071;83;20278;-85
2022/04/19 00:05:10;;;;;;;;;;;;;;;5.23;55.44;97735.22;1706138;83;20363;-82
2022/04/19 00:07:37;;;;;;;;;;;;;;;5.23;55.63;97725.69;1671395;84;24785;-82
2022/04/19 00:10:04;;;;;;;;;;;;;;;5.28;55.84;97728.83;1703803;83;22171;-82
2022/04/19 00:12:30;;;;;;;;;;;;;;;5.33;56.03;97730.69;1666524;84;25991;-83
2022/04/19 00:14:56;;;;;;;;;;;;;;;5.35;56.21;97724.92;1687369;83;20306;-82
2022/04/19 00:17:22;;;;;;;;;;;;;;;5.39;56.41;97732.08;1681891;85;20272;-82
2022/04/19 00:19:48;;;;;;;;;;;;;;;5.38;56.53;97729.95;1682571;85;25011;-82
2022/04/19 00:22:14;;;;;;;;;;;;;;;5.39;56.64;97730.78;1682647;83;22027;-83
2022/04/19 00:24:40;;;;;;;;;;;;;;;5.46;56.81;97726.87;1682068;85;26006;-83
2022/04/19 00:27:06;;;;;;;;;;;;;;;5.55;57.02;97728.09;1683453;85;20779;-83
2022/04/19 00:29:32;;;;;;;;;;;;;;;5.56;57.11;97724.11;1682790;83;20764;-86
2022/04/19 00:31:59;;;;;;;;;;;;;;;5.57;57.17;97719.73;1682854;84;20758;-85
2022/04/19 00:34:25;;;;;;;;;;;;;;;5.56;57.23;97712.89;1683602;85;22076;-86
2022/04/19 00:36:51;;;;;;;;;;;;;;;5.53;57.32;97708.71;1681412;84;26134;-86
2022/04/19 00:39:17;;;;;;;;;;;;;;;5.56;57.43;97706.41;1681938;83;24540;-86
2022/04/19 00:41:43;;;;;;;;;;;;;;;5.55;57.55;97704.27;1682103;84;20272;-85
2022/04/19 00:44:09;;;;;;;;;;;;;;;5.56;57.66;97703.81;1682138;84;24784;-85
2022/04/19 00:46:35;;;;;;;;;;;;;;;5.53;57.75;97695.73;1662524;84;22047;-84
2022/04/19 00:49:01;;;;;;;;;;;;;;;5.52;57.85;97703.61;1661775;85;26059;-84
2022/04/19 00:51:31;;;;;;;;;;;;;;;5.48;57.95;97693.42;1657141;86;20887;-83
2022/04/19 00:53:58;;;;;;;;;;;;;;;5.45;58.09;97689.70;1656907;86;20636;-83
2022/04/19 00:56:23;;;;;;;;;;;;;;;5.39;58.22;97686.22;1664089;86;24761;-83
2022/04/19 00:58:50;;;;;;;;;;;;;;;5.30;58.34;97677.67;1657007;86;20776;-83
2022/04/19 01:01:16;;;;;;;;;;;;;;;5.24;58.48;97675.91;1661870;86;26054;-83
2022/04/19 01:03:42;;;;;;;;;;;;;;;5.17;58.63;97676.77;1680049;84;24554;-83
2022/04/19 01:06:08;;;;;;;;;;;;;;;5.09;58.79;97672.48;1681511;84;20524;-83
2022/04/19 01:08:34;;;;;;;;;;;;;;;5.03;58.96;97676.73;1661958;84;24785;-83
2022/04/19 01:13:45;;;;;;;;;;;;;;;4.92;59.33;97663.13;1685587;84;26046;-82
2022/04/19 01:16:12;;;;;;;;;;;;;;;4.89;59.56;97665.07;1660295;86;24444;-83
2022/04/19 01:18:38;;;;;;;;;;;;;;;4.87;59.80;97663.02;1680216;84;20285;-83
2022/04/19 01:21:06;;;;;;;;;;;;;;;4.85;60.05;97655.82;1683392;84;24803;-84
2022/04/19 01:23:32;;;;;;;;;;;;;;;4.84;60.27;97661.92;1684994;84;21645;-84
2022/04/19 01:25:59;;;;;;;;;;;;;;;4.82;60.50;97666.34;1681611;84;21696;-84
2022/04/19 01:28:25;;;;;;;;;;;;;;;4.81;60.70;97665.52;1666586;84;24592;-85
2022/04/19 01:30:54;;;;;;;;;;;;;;;4.78;60.90;97664.88;1656809;85;20264;-83
2022/04/19 01:33:22;;;;;;;;;;;;;;;4.77;61.18;97665.33;1657874;86;24907;-83
2022/04/19 01:35:49;;;;;;;;;;;;;;;4.78;61.50;97664.88;1657948;86;21845;-83
2022/04/19 01:38:15;;;;;;;;;;;;;;;4.81;61.84;97664.67;1663355;86;26115;-84
2022/04/19 01:40:41;;;;;;;;;;;;;;;4.85;62.17;97659.70;1677818;84;24495;-85
2022/04/19 01:43:07;;;;;;;;;;;;;;;4.88;62.52;97656.92;1642848;86;20221;-85
2022/04/19 01:45:33;;;;;;;;;;;;;;;4.90;62.82;97653.33;1669126;84;24735;-85
2022/04/19 01:48:00;;;;;;;;;;;;;;;4.94;63.12;97658.69;1690232;84;22968;-83
2022/04/19 01:50:27;;;;;;;;;;;;;;;4.96;63.33;97650.83;1692025;84;26116;-83
2022/04/19 01:52:56;;;;;;;;;;;;;;;4.98;63.59;97645.91;1708357;82;25203;-83
2022/04/19 01:55:23;;;;;;;;;;;;;;;5.00;63.81;97640.17;1707248;84;20442;-83
2022/04/19 01:57:54;;;;;;;;;;;;;;;4.99;64.02;97644.15;1719548;83;24743;-83
2022/04/19 02:00:20;;;;;;;;;;;;;;;5.04;64.26;97641.66;1715032;83;22061;-83
2022/04/19 02:02:46;;;;;;;;;;;;;;;5.06;64.45;97635.09;1681557;84;26088;-83
2022/04/19 02:05:12;;;;;;;;;;;;;;;5.01;64.57;97627.59;1679980;85;24445;-83
2022/04/19 02:07:41;;;;;;;;;;;;;;;4.96;64.63;97622.31;1680055;84;20254;-83
2022/04/19 02:10:13;;;;;;;;;;;;;;;4.92;64.79;97619.05;1711124;84;25584;-83
2022/04/19 02:12:39;;;;;;;;;;;;;;;4.87;64.91;97624.97;1681389;85;22147;-83
2022/04/19 02:15:05;;;;;;;;;;;;;;;4.80;64.89;97617.67;1722289;82;26011;-83
2022/04/19 02:17:31;;;;;;;;;;;;;;;4.78;64.94;97614.33;1682300;84;24641;-83
2022/04/19 02:19:59;;;;;;;;;;;;;;;4.76;65.04;97617.00;1687350;84;20254;-83
2022/04/19 02:22:26;;;;;;;;;;;;;;;4.79;65.14;97619.43;1706873;84;24821;-83
2022/04/19 02:24:58;;;;;;;;;;;;;;;4.82;65.25;97624.88;1706482;84;21996;-85
2022/04/19 02:27:31;;;;;;;;;;;;;;;4.84;65.34;97625.63;1680728;85;26038;-83
2022/04/19 02:30:04;;;;;;;;;;;;;;;4.87;65.55;97629.32;1680515;84;25220;-85
2022/04/19 02:32:29;;;;;;;;;;;;;;;4.79;65.66;97627.20;1710674;84;20207;-86
2022/04/19 02:34:55;;;;;;;;;;;;;;;4.63;65.68;97632.47;1682626;85;20348;-85
2022/04/19 02:37:22;;;;;;;;;;;;;;;4.49;65.68;97633.72;1706721;84;20318;-85
2022/04/19 02:39:54;;;;;;;;;;;;;;;4.46;65.76;97633.08;1705674;84;26222;-86
2022/04/19 02:42:19;;;;;;;;;;;;;;;4.53;66.07;97630.02;1679920;85;24546;-85
2022/04/19 02:44:45;;;;;;;;;;;;;;;4.68;66.55;97633.48;1679408;85;20881;-87
2022/04/19 02:47:11;;;;;;;;;;;;;;;4.79;66.93;97632.84;1669436;84;25007;-85
2022/04/19 02:49:37;;;;;;;;;;;;;;;4.82;67.21;97638.67;1666547;84;20225;-84
2022/04/19 02:52:04;;;;;;;;;;;;;;;4.93;67.52;97627.66;1664983;86;21001;-83
2022/04/19 02:54:30;;;;;;;;;;;;;;;5.02;67.65;97625.80;1694783;84;24615;-83
2022/04/19 02:56:57;;;;;;;;;;;;;;;5.04;67.70;97625.25;1685578;84;20844;-85
2022/04/19 02:59:29;;;;;;;;;;;;;;;5.06;67.79;97627.31;1683073;84;25521;-83
2022/04/19 03:01:54;;;;;;;;;;;;;;;5.12;67.92;97623.05;1686495;83;22112;-85
2022/04/19 03:04:20;;;;;;;;;;;;;;;5.14;68.01;97617.74;1685756;85;20992;-86
2022/04/19 03:06:47;;;;;;;;;;;;;;;5.13;68.06;97616.10;1683686;84;24399;-83
2022/04/19 03:09:13;;;;;;;;;;;;;;;5.09;68.00;97618.03;1687456;83;20167;-85
2022/04/19 03:11:39;;;;;;;;;;;;;;;5.10;68.03;97616.27;1686406;84;20224;-86
2022/04/19 03:14:06;;;;;;;;;;;;;;;5.09;68.07;97622.37;1681782;85;20845;-86
2022/04/19 03:16:33;;;;;;;;;;;;;;;5.05;68.14;97617.39;1683732;84;26762;-84
2022/04/19 03:18:59;;;;;;;;;;;;;;;4.98;68.14;97613.50;1683467;84;24535;-83
2022/04/19 03:21:25;;;;;;;;;;;;;;;4.89;68.11;97616.66;1686758;84;20573;-84
2022/04/19 03:29:26;;;;;;;;;;;;;;;4.68;68.26;97608.87;1683270;82;26230;-83
2022/04/19 03:31:52;;;;;;;;;;;;;;;4.64;68.34;97617.27;1683225;83;20281;-83
2022/04/19 03:34:18;;;;;;;;;;;;;;;4.56;68.41;97621.24;1681879;85;20872;-85
2022/04/19 03:36:45;;;;;;;;;;;;;;;4.70;68.67;97615.23;1683590;84;24755;-83
2022/04/19 03:39:11;;;;;;;;;;;;;;;4.79;68.90;97610.81;1684249;84;22587;-83
2022/04/19 03:41:37;;;;;;;;;;;;;;;4.80;69.02;97609.41;1683337;84;20953;-83
2022/04/19 03:44:03;;;;;;;;;;;;;;;4.77;69.01;97608.77;1687442;84;20797;-85
2022/04/19 03:46:29;;;;;;;;;;;;;;;4.73;69.01;97599.52;1686216;83;20859;-83
2022/04/19 03:48:56;;;;;;;;;;;;;;;4.73;69.10;97602.11;1690499;84;20214;-83
2022/04/19 03:51:22;;;;;;;;;;;;;;;4.76;69.22;97596.73;1692297;84;21961;-85
2022/04/19 03:53:48;;;;;;;;;;;;;;;4.79;69.37;97596.56;1683733;84;20984;-84
2022/04/19 03:56:14;;;;;;;;;;;;;;;4.83;69.53;97594.15;1693145;84;24482;-84
2022/04/19 03:58:40;;;;;;;;;;;;;;;4.86;69.71;97593.95;1695204;83;20788;-82
2022/04/19 04:01:07;;;;;;;;;;;;;;;4.88;69.80;97594.70;1693683;83;20408;-83
2022/04/19 04:03:33;;;;;;;;;;;;;;;4.85;69.87;97594.91;1688759;84;22073;-85
2022/04/19 04:05:59;;;;;;;;;;;;;;;4.82;69.89;97589.42;1692766;84;26025;-85
2022/04/19 04:08:25;;;;;;;;;;;;;;;4.80;69.85;97594.34;1689360;84;24460;-85
2022/04/19 04:10:51;;;;;;;;;;;;;;;4.77;69.89;97591.92;1689851;84;20769;-85
2022/04/19 04:13:18;;;;;;;;;;;;;;;4.76;69.92;97594.14;1688371;84;24928;-85
2022/04/19 04:15:50;;;;;;;;;;;;;;;4.78;69.99;97599.61;1693109;84;21984;-86
2022/04/19 04:18:16;;;;;;;;;;;;;;;4.81;70.16;97598.12;1690929;84;26002;-85
2022/04/19 04:20:44;;;;;;;;;;;;;;;4.83;70.21;97605.81;1687202;84;24438;-85
2022/04/19 04:23:10;;;;;;;;;;;;;;;4.81;70.19;97608.48;1685005;84;20286;-86
2022/04/19 04:25:44;;;;;;;;;;;;;;;4.84;70.25;97611.38;1693429;83;20833;-86
2022/04/19 04:28:10;;;;;;;;;;;;;;;4.86;70.42;97615.52;1689808;84;22747;-84
2022/04/19 04:30:36;;;;;;;;;;;;;;;4.87;70.56;97612.47;1691744;84;21182;-83
2022/04/19 04:33:02;;;;;;;;;;;;;;;4.87;70.71;97613.31;1689084;84;20439;-83
2022/04/19 04:35:28;;;;;;;;;;;;;;;4.91;70.89;97608.80;1690795;84;20188;-86
2022/04/19 04:37:56;;;;;;;;;;;;;;;4.97;71.11;97609.69;1690596;84;20348;-83
2022/04/19 04:40:22;;;;;;;;;;;;;;;4.95;71.26;97606.38;1691142;83;22009;-83
2022/04/19 04:42:48;;;;;;;;;;;;;;;4.88;71.31;97607.66;1688456;84;20980;-83
2022/04/19 04:45:14;;;;;;;;;;;;;;;4.98;71.56;97611.36;1689798;84;20915;-82
2022/04/19 04:50:24;;;;;;;;;;;;;;;5.12;72.07;97609.25;1683401;84;24826;-82
2022/04/19 04:52:52;;;;;;;;;;;;;;;5.16;72.34;97608.96;1684869;85;20261;-82
2022/04/19 04:55:18;;;;;;;;;;;;;;;5.24;72.64;97610.60;1683603;85;26192;-83
2022/04/19 04:57:44;;;;;;;;;;;;;;;5.28;72.84;97612.56;1683809;83;20305;-83
2022/04/19 05:00:10;;;;;;;;;;;;;;;5.30;72.88;97614.58;1686864;84;20852;-83
2022/04/19 05:02:36;;;;;;;;;;;;;;;5.33;73.00;97611.81;1683604;85;24975;-83
2022/04/19 05:05:03;;;;;;;;;;;;;;;5.30;73.08;97615.41;1686384;84;22289;-83
2022/04/19 05:07:29;;;;;;;;;;;;;;;5.25;73.15;97613.57;1686965;83;26157;-82
2022/04/19 05:09:56;;;;;;;;;;;;;;;5.23;73.28;97609.42;1683267;85;20881;-84
2022/04/19 05:12:22;;;;;;;;;;;;;;;5.21;73.46;97608.21;1685565;84;20264;-83
2022/04/19 05:14:48;;;;;;;;;;;;;;;5.21;73.53;97603.02;1683975;84;20825;-83
2022/04/19 05:17:14;;;;;;;;;;;;;;;5.23;73.49;97606.83;1682046;84;21911;-83
2022/04/19 05:19:40;;;;;;;;;;;;;;;5.25;73.50;97599.30;1683692;85;25977;-83
2022/04/19 05:22:06;;;;;;;;;;;;;;;5.34;73.60;97600.52;1683563;84;20305;-83
2022/04/19 05:24:32;;;;;;;;;;;;;;;5.40;73.69;97608.72;1686376;84;20569;-83
2022/04/19 05:26:58;;;;;;;;;;;;;;;5.45;73.77;97610.56;1686549;85;20207;-82
2022/04/19 05:29:25;;;;;;;;;;;;;;;5.53;73.85;97605.38;1683762;85;20887;-86
2022/04/19 05:31:51;;;;;;;;;;;;;;;5.60;73.93;97604.06;1684543;84;25961;-83
2022/04/19 05:34:23;;;;;;;;;;;;;;;5.66;73.89;97604.52;1683278;84;24399;-83
2022/04/19 05:36:54;;;;;;;;;;;;;;;5.69;73.81;97609.50;1682739;84;20224;-82
2022/04/19 05:39:26;;;;;;;;;;;;;;;5.71;73.71;97610.25;1684080;84;25789;-83
2022/04/19 05:41:53;;;;;;;;;;;;;;;5.72;73.71;97613.67;1680126;84;21987;-82
2022/04/19 05:44:21;;;;;;;;;;;;;;;5.72;73.55;97604.59;1684792;83;26098;-85
2022/04/19 05:46:50;;;;;;;;;;;;;;;5.73;73.47;97608.37;1685085;84;25107;-83
2022/04/19 05:49:16;;;;;;;;;;;;;;;5.75;73.41;97606.98;1690431;83;20215;-83
2022/04/19 05:51:43;;;;;;;;;;;;;;;5.76;73.34;97604.76;1692581;84;25671;-82
2022/04/19 05:54:09;;;;;;;;;;;;;;;5.82;73.34;97613.45;1694306;84;21652;-86
2022/04/19 05:56:35;;;;;;;;;;;;;;;5.88;73.41;97617.00;1693729;83;21194;-83
2022/04/19 05:59:01;;;;;;;;;;;;;;;5.94;73.52;97612.70;1691460;84;24511;-83
2022/04/19 06:04:51;;;;;;;;;;;;;;;5.97;73.54;97607.30;1686030;84;20509;-86
2022/04/19 06:06:39;;;;;;;;;;;;;;;6.07;73.74;97607.53;1692104;84;22097;-83
2022/04/19 06:09:12;;;;;;;;;;;;;;;6.12;73.86;97610.66;1690616;84;20983;-83
2022/04/19 06:11:36;;;;;;;;;;;;;;;6.16;74.00;97607.80;1684968;84;24469;-83
2022/04/19 06:14:02;;;;;;;;;;;;;;;6.23;74.17;97603.00;1691058;83;20880;-83
2022/04/19 06:16:28;;;;;;;;;;;;;;;6.31;74.35;97607.25;1686658;84;20804;-83
2022/04/19 06:18:54;;;;;;;;;;;;;;;6.36;74.58;97610.38;1690723;84;21925;-83
2022/04/19 06:21:20;;;;;;;;;;;;;;;6.37;74.67;97607.31;1689291;84;20963;-83
2022/04/19 06:23:47;;;;;;;;;;;;;;;6.41;74.87;97608.77;1689165;84;24416;-86
2022/04/19 06:26:14;;;;;;;;;;;;;;;6.45;75.09;97608.45;1685315;84;20195;-84
2022/04/19 06:28:40;;;;;;;;;;;;;;;6.50;75.33;97605.08;1691337;84;24857;-86
2022/04/19 06:31:06;;;;;;;;;;;;;;;6.57;75.55;97606.80;1691247;83;20227;-84
2022/04/19 06:33:33;;;;;;;;;;;;;;;6.64;75.76;97610.20;1689125;84;26085;-84
2022/04/19 06:36:03;;;;;;;;;;;;;;;6.74;76.07;97609.11;1688244;84;25446;-82
2022/04/19 06:38:30;;;;;;;;;;;;;;;6.75;76.25;97615.98;1693129;84;20474;-83
2022/04/19 06:40:59;;;;;;;;;;;;;;;6.74;76.37;97611.70;1690839;84;25407;-82
2022/04/19 06:43:24;;;;;;;;;;;;;;;6.77;76.56;97617.98;1688389;84;22040;-83
2022/04/19 06:45:51;;;;;;;;;;;;;;;6.81;76.97;97618.64;1697690;83;21103;-86
2022/04/19 06:48:17;;;;;;;;;;;;;;;6.77;77.21;97619.29;1686177;83;24658;-86
2022/04/19 06:50:44;;;;;;;;;;;;;;;6.75;77.44;97622.48;1681909;84;20251;-86
2022/04/19 06:53:10;;;;;;;;;;;;;;;6.66;77.62;97616.11;1687769;84;20235;-86
2022/04/19 06:55:37;;;;;;;;;;;;;;;6.57;77.74;97621.94;1681197;84;21987;-83
2022/04/19 06:58:03;;;;;;;;;;;;;;;6.57;78.08;97618.50;1683940;83;26003;-86
2022/04/19 07:00:29;;;;;;;;;;;;;;;6.58;78.45;97618.88;1684757;85;24440;-83
2022/04/19 07:03:01;;;;;;;;;;;;;;;6.63;78.89;97616.33;1681672;84;20175;-84
2022/04/19 07:05:27;;;;;;;;;;;;;;;6.73;79.48;97621.73;1680720;84;24748;-83
2022/04/19 07:07:54;;;;;;;;;;;;;;;6.76;80.06;97615.05;1685297;83;22748;-83
2022/04/19 07:10:22;;;;;;;;;;;;;;;6.77;80.56;97621.89;1683491;85;21865;-86
2022/04/19 07:12:48;;;;;;;;;;;;;;;6.73;80.89;97616.54;1685183;85;20290;-84
2022/04/19 07:15:14;;;;;;;;;;;;;;;6.76;81.36;97622.85;1686584;84;20833;-86
2022/04/19 07:17:43;;;;;;;;;;;;;;;6.80;81.77;97623.47;1687379;85;24794;-83
2022/04/19 07:28:30;;;;;;;;;;;;;;;6.97;83.19;97630.50;1685349;84;20243;-84
2022/04/19 07:30:56;;;;;;;;;;;;;;;6.89;83.27;97630.17;1682363;85;24770;-84
2022/04/19 07:33:22;;;;;;;;;;;;;;;6.79;83.35;97627.83;1683545;84;20243;-84
2022/04/19 07:35:50;;;;;;;;;;;;;;;6.71;83.41;97624.44;1684280;84;25998;-84
2022/04/19 07:38:16;;;;;;;;;;;;;;;6.64;83.48;97632.77;1686757;83;24529;-83
2022/04/19 07:40:42;;;;;;;;;;;;;;;6.54;83.61;97633.02;1684238;85;20467;-84
2022/04/19 07:43:08;;;;;;;;;;;;;;;6.52;83.82;97630.98;1685230;85;24784;-87
2022/04/19 07:45:34;;;;;;;;;;;;;;;6.49;84.11;97631.20;1686372;83;20238;-87
2022/04/19 07:48:01;;;;;;;;;;;;;;;6.51;84.38;97639.70;1685204;83;26643;-83
2022/04/19 07:50:27;;;;;;;;;;;;;;;6.55;84.75;97632.05;1683977;83;24496;-83
2022/04/19 07:52:53;;;;;;;;;;;;;;;6.54;85.05;97638.22;1689845;83;20339;-83
2022/04/19 07:55:19;;;;;;;;;;;;;;;6.48;85.29;97636.02;1682389;83;21093;-83
2022/04/19 07:57:45;;;;;;;;;;;;;;;6.51;85.58;97640.54;1684702;84;21938;-83
2022/04/19 08:00:11;;;;;;;;;;;;;;;6.57;85.92;97638.00;1687403;83;26001;-83
2022/04/19 08:02:37;;;;;;;;;;;;;;;6.62;86.29;97641.13;1683129;84;24474;-84
2022/04/19 08:05:04;;;;;;;;;;;;;;;6.65;86.56;97638.34;1683946;83;20597;-84
2022/04/19 08:07:30;;;;;;;;;;;;;;;6.70;86.79;97637.09;1687231;84;24762;-84
2022/04/19 08:09:58;;;;;;;;;;;;;;;6.79;87.01;97638.23;1687028;83;20282;-85
2022/04/19 08:12:25;;;;;;;;;;;;;;;6.92;87.33;97642.15;1683543;84;26053;-83
2022/04/19 08:14:51;;;;;;;;;;;;;;;6.98;87.50;97645.64;1683289;84;24428;-84
2022/04/19 08:17:17;;;;;;;;;;;;;;;7.04;87.66;97639.99;1686500;84;20466;-83
2022/04/19 08:19:43;;;;;;;;;;;;;;;7.09;87.80;97633.53;1684326;83;20785;-83
2022/04/19 08:22:09;;;;;;;;;;;;;;;7.20;87.99;97639.80;1685485;84;20305;-84
2022/04/19 08:24:35;;;;;;;;;;;;;;;7.30;88.20;97643.42;1682587;84;21211;-82
2022/04/19 08:27:01;;;;;;;;;;;;;;;7.23;88.11;97646.91;1685141;83;24445;-86
2022/04/19 08:29:27;;;;;;;;;;;;;;;7.14;87.96;97643.66;1683493;84;20310;-86
2022/04/19 08:31:53;;;;;;;;;;;;;;;7.14;87.96;97645.79;1685811;84;24846;-86
2022/04/19 08:34:19;;;;;;;;;;;;;;;7.12;87.97;97642.45;1686056;83;22033;-85
2022/04/19 08:36:46;;;;;;;;;;;;;;;7.12;88.06;97646.81;1684434;83;26039;-83
2022/04/19 08:39:12;;;;;;;;;;;;;;;7.15;88.19;97650.03;1683524;84;24476;-84
2022/04/19 08:41:40;;;;;;;;;;;;;;;7.24;88.44;97651.66;1683329;84;20313;-86
2022/04/19 08:44:08;;;;;;;;;;;;;;;7.16;88.44;97646.96;1679462;84;24842;-83
2022/04/19 08:46:36;;;;;;;;;;;;;;;7.06;88.36;97652.44;1685262;85;22238;-84
2022/04/19 08:49:04;;;;;;;;;;;;;;;6.96;88.41;97657.44;1684521;83;26710;-83
2022/04/19 08:51:34;;;;;;;;;;;;;;;6.87;88.53;97657.23;1687944;84;23764;-84
2022/04/19 08:59:30;;;;;;;;;;;;;;;6.78;89.15;97656.53;1687436;83;22216;-83
2022/04/19 09:01:57;;;;;;;;;;;;;;;6.94;89.67;97654.09;1688760;84;26047;-87
2022/04/19 09:04:23;;;;;;;;;;;;;;;7.13;90.18;97662.80;1689533;84;24500;-87
2022/04/19 09:06:54;;;;;;;;;;;;;;;7.17;90.44;97653.00;1689770;84;20845;-85
2022/04/19 09:09:21;;;;;;;;;;;;;;;7.21;90.49;97651.84;1692237;84;25428;-87
2022/04/19 09:11:48;;;;;;;;;;;;;;;7.26;90.62;97654.96;1691308;84;22624;-87
2022/04/19 09:14:22;;;;;;;;;;;;;;;7.34;90.73;97660.48;1687659;84;26187;-84
2022/04/19 09:16:49;;;;;;;;;;;;;;;7.45;90.87;97656.20;1694264;84;25366;-84
2022/04/19 09:19:28;;;;;;;;;;;;;;;7.53;91.03;97651.28;1682313;84;20310;-84
2022/04/19 09:21:55;;;;;;;;;;;;;;;7.49;90.69;97653.74;1694099;84;24821;-84
2022/04/19 09:24:23;;;;;;;;;;;;;;;7.51;90.53;97660.98;1690306;84;22471;-83
2022/04/19 09:26:49;;;;;;;;;;;;;;;7.53;90.43;97659.09;1693296;84;26175;-84
2022/04/19 09:29:18;;;;;;;;;;;;;;;7.50;90.22;97654.11;1689621;84;20876;-84
2022/04/19 09:31:44;;;;;;;;;;;;;;;7.47;90.01;97653.50;1690043;84;20625;-84
2022/04/19 09:34:11;;;;;;;;;;;;;;;7.51;89.87;97656.25;1689169;84;24821;-84
2022/04/19 09:36:40;;;;;;;;;;;;;;;7.58;89.75;97654.39;1689097;83;21446;-84
2022/04/19 09:39:07;;;;;;;;;;;;;;;7.61;89.51;97653.36;1691037;84;25684;-84
2022/04/19 09:41:33;;;;;;;;;;;;;;;7.68;89.44;97658.97;1687275;84;24480;-84
2022/04/19 09:44:06;;;;;;;;;;;;;;;7.65;89.22;97663.91;1689589;84;20350;-84
2022/04/19 09:46:33;;;;;;;;;;;;;;;7.56;88.76;97665.87;1693567;84;24803;-84
2022/04/19 09:49:00;;;;;;;;;;;;;;;7.55;88.45;97665.03;1688517;83;22070;-84
2022/04/19 09:51:33;;;;;;;;;;;;;;;7.67;88.52;97658.14;1688378;83;26161;-83
2022/04/19 09:53:59;;;;;;;;;;;;;;;7.70;88.45;97657.07;1684296;85;24424;-84
2022/04/19 09:56:35;;;;;;;;;;;;;;;7.72;88.35;97656.50;1684014;84;20330;-83
2022/04/19 09:59:02;;;;;;;;;;;;;;;7.74;88.29;97654.17;1683600;85;24743;-84
2022/04/19 10:09:32;;;;;;;;;;;;;;;8.01;88.23;97651.36;1693844;83;20232;-85
2022/04/19 10:11:58;;;;;;;;;;;;;;;8.08;88.16;97648.66;1655708;86;24744;-84
2022/04/19 10:14:24;;;;;;;;;;;;;;;8.19;88.21;97643.97;1672677;84;22054;-84
2022/04/19 10:16:55;;;;;;;;;;;;;;;8.29;88.19;97644.48;1675235;85;26062;-85
2022/04/19 10:19:27;;;;;;;;;;;;;;;8.37;88.11;97650.48;1665736;84;24494;-84
2022/04/19 10:21:54;;;;;;;;;;;;;;;8.38;87.90;97643.86;1675058;85;20472;-85
2022/04/19 10:24:20;;;;;;;;;;;;;;;8.48;87.81;97646.61;1675202;85;24748;-84
2022/04/19 10:26:48;;;;;;;;;;;;;;;8.49;87.49;97646.15;1672369;85;21883;-84
2022/04/19 10:29:17;;;;;;;;;;;;;;;8.54;87.22;97653.16;1691410;83;25961;-84
2022/04/19 10:31:45;;;;;;;;;;;;;;;8.58;86.97;97650.20;1697313;81;24488;-85
2022/04/19 10:34:13;;;;;;;;;;;;;;;8.62;86.74;97655.54;1691484;83;20227;-84
2022/04/19 10:36:40;;;;;;;;;;;;;;;8.59;86.35;97658.39;1691450;84;25357;-83
2022/04/19 10:39:14;;;;;;;;;;;;;;;8.56;85.94;97659.94;1708534;83;21988;-83
2022/04/19 10:41:55;;;;;;;;;;;;;;;8.57;85.66;97658.97;1668445;84;26259;-83
2022/04/19 10:44:23;;;;;;;;;;;;;;;8.52;85.17;97659.78;1666763;85;25197;-83
2022/04/19 10:47:03;;;;;;;;;;;;;;;8.60;84.99;97657.92;1664294;85;20316;-84
2022/04/19 10:49:29;;;;;;;;;;;;;;;8.67;84.90;97660.44;1653791;83;24828;-83
2022/04/19 10:52:02;;;;;;;;;;;;;;;8.72;84.60;97662.23;1651505;85;22010;-87
2022/04/19 10:54:45;;;;;;;;;;;;;;;8.77;84.34;97664.86;1649288;87;25982;-87
2022/04/19 10:57:12;;;;;;;;;;;;;;;8.79;83.85;97662.94;1612883;88;24447;-87
2022/04/19 10:59:38;;;;;;;;;;;;;;;8.83;83.38;97657.52;1612491;88;20283;-84
2022/04/19 11:02:23;;;;;;;;;;;;;;;8.93;83.17;97656.70;1616161;88;24798;-84
2022/04/19 11:04:49;;;;;;;;;;;;;;;9.13;83.30;97653.40;1622836;85;22081;-84
2022/04/19 11:07:16;;;;;;;;;;;;;;;9.20;83.16;97653.30;1675271;85;21014;-84
2022/04/19 11:09:44;;;;;;;;;;;;;;;9.24;82.93;97656.02;1650596;85;24434;-84
2022/04/19 11:12:10;;;;;;;;;;;;;;;9.22;82.50;97650.55;1646388;87;20263;-84
2022/04/19 11:14:40;;;;;;;;;;;;;;;9.29;82.31;97656.97;1679296;84;24852;-87
2022/04/19 11:17:21;;;;;;;;;;;;;;;9.34;82.06;97657.91;1650286;87;21854;-87
2022/04/19 11:19:56;;;;;;;;;;;;;;;9.41;81.90;97656.03;1687110;84;27289;-87
2022/04/19 11:22:29;;;;;;;;;;;;;;;9.45;81.58;97658.75;1701221;84;25357;-87
2022/04/19 11:25:02;;;;;;;;;;;;;;;9.51;81.24;97654.36;1686087;84;20232;-87
2022/04/19 11:27:47;;;;;;;;;;;;;;;9.48;80.78;97662.45;1700520;84;25386;-84
2022/04/19 11:30:13;;;;;;;;;;;;;;;9.57;80.61;97663.50;1677709;84;22131;-85
2022/04/19 11:32:40;;;;;;;;;;;;;;;9.77;80.48;97663.23;1681839;84;26017;-84
2022/04/19 11:35:14;;;;;;;;;;;;;;;9.93;80.41;97665.81;1679500;84;24429;-84
2022/04/19 11:37:40;;;;;;;;;;;;;;;10.09;80.48;97660.23;1679879;84;20286;-86
2022/04/19 11:48:48;;;;;;;;;;;;;;;10.22;77.88;97659.61;1655586;85;24478;-84
2022/04/19 11:51:16;;;;;;;;;;;;;;;10.35;77.54;97651.13;1664674;86;20199;-84
2022/04/19 11:53:43;;;;;;;;;;;;;;;10.39;77.06;97659.08;1693728;84;24725;-87
2022/04/19 11:56:09;;;;;;;;;;;;;;;10.48;76.72;97664.02;1683670;84;22756;-87
2022/04/19 11:58:38;;;;;;;;;;;;;;;10.53;76.25;97661.05;1685457;83;26125;-86
2022/04/19 12:01:06;;;;;;;;;;;;;;;10.16;74.52;97665.33;1682755;84;24484;-84
2022/04/19 12:03:33;;;;;;;;;;;;;;;9.97;73.40;97661.20;1685016;83;20199;-88
2022/04/19 12:06:08;;;;;;;;;;;;;;;9.95;72.88;97668.32;1682949;83;24884;-87
2022/04/19 12:08:41;;;;;;;;;;;;;;;9.98;72.59;97660.25;1682413;83;21962;-84
2022/04/19 12:11:14;;;;;;;;;;;;;;;10.06;72.50;97659.98;1687978;84;26755;-84
2022/04/19 12:13:41;;;;;;;;;;;;;;;10.20;72.41;97658.09;1685419;85;24436;-84
2022/04/19 12:16:09;;;;;;;;;;;;;;;10.31;72.43;97660.16;1687370;85;20432;-83
2022/04/19 12:18:36;;;;;;;;;;;;;;;10.26;72.03;97663.63;1677514;84;24751;-83
2022/04/19 12:21:03;;;;;;;;;;;;;;;10.08;71.31;97666.41;1684729;84;22072;-83
2022/04/19 12:23:30;;;;;;;;;;;;;;;9.94;70.58;97668.80;1686692;84;26795;-86
2022/04/19 12:26:00;;;;;;;;;;;;;;;9.90;70.14;97674.39;1682998;85;24467;-86
2022/04/19 12:28:40;;;;;;;;;;;;;;;9.94;69.96;97673.19;1685894;83;20228;-86
2022/04/19 12:31:06;;;;;;;;;;;;;;;9.93;69.89;97679.36;1686632;83;24759;-87
2022/04/19 12:33:32;;;;;;;;;;;;;;;9.82;69.76;97687.25;1684922;84;21952;-87
2022/04/19 12:35:58;;;;;;;;;;;;;;;9.64;69.62;97692.95;1684734;85;25979;-87
2022/04/19 12:38:31;;;;;;;;;;;;;;;9.54;69.76;97690.70;1682778;84;24514;-87
2022/04/19 12:41:00;;;;;;;;;;;;;;;9.42;69.94;97704.70;1681254;85;20248;-87
2022/04/19 12:43:42;;;;;;;;;;;;;;;9.20;70.16;97709.42;1685652;84;20770;-85
2022/04/19 12:46:08;;;;;;;;;;;;;;;8.94;70.22;97708.42;1682730;84;22243;-84
2022/04/19 12:48:34;;;;;;;;;;;;;;;8.64;70.30;97718.03;1682369;84;21212;-85
2022/04/19 12:51:01;;;;;;;;;;;;;;;8.34;70.34;97722.41;1692857;84;24704;-87
2022/04/19 12:53:28;;;;;;;;;;;;;;;8.10;70.49;97723.66;1689069;83;20163;-87
2022/04/19 12:55:56;;;;;;;;;;;;;;;7.95;70.89;97730.80;1692305;83;24762;-85
2022/04/19 12:58:46;;;;;;;;;;;;;;;7.81;71.39;97741.80;1689822;84;22016;-86
2022/04/19 13:01:13;;;;;;;;;;;;;;;7.67;72.11;97747.98;1688874;84;26045;-86
2022/04/19 13:03:39;;;;;;;;;;;;;;;7.62;72.96;97753.14;1692440;84;24456;-86
2022/04/19 13:14:20;;;;;;;;;;;;;;;7.04;75.87;97760.49;1691561;84;26019;-87
2022/04/19 13:16:46;;;;;;;;;;;;;;;6.88;76.59;97761.14;1687922;84;24435;-86
2022/04/19 13:19:13;;;;;;;;;;;;;;;6.75;77.27;97762.89;1686336;84;20236;-85
2022/04/19 13:21:39;;;;;;;;;;;;;;;6.76;78.05;97760.66;1693094;84;24851;-87
2022/04/19 13:24:06;;;;;;;;;;;;;;;6.77;78.93;97758.41;1688769;84;21982;-86
2022/04/19 13:26:32;;;;;;;;;;;;;;;6.68;79.67;97757.25;1691065;83;26168;-87
2022/04/19 13:28:58;;;;;;;;;;;;;;;6.65;80.47;97753.56;1694191;84;24494;-85
2022/04/19 13:31:26;;;;;;;;;;;;;;;6.60;81.18;97755.59;1689173;84;20322;-87
2022/04/19 13:33:55;;;;;;;;;;;;;;;6.62;81.90;97756.81;1689073;84;25757;-85
2022/04/19 13:36:22;;;;;;;;;;;;;;;6.56;82.59;97757.20;1686528;84;22563;-85
2022/04/19 13:38:48;;;;;;;;;;;;;;;6.57;83.33;97759.71;1692219;84;26609;-87
2022/04/19 13:41:14;;;;;;;;;;;;;;;6.60;84.15;97754.80;1695634;83;24474;-87
2022/04/19 13:43:40;;;;;;;;;;;;;;;6.66;84.92;97754.37;1693332;84;20314;-85
2022/04/19 13:46:06;;;;;;;;;;;;;;;6.71;85.71;97747.10;1689902;84;24747;-87
2022/04/19 13:48:36;;;;;;;;;;;;;;;6.71;86.37;97750.54;1692233;84;22173;-87
2022/04/19 13:51:02;;;;;;;;;;;;;;;6.72;86.99;97743.11;1686865;84;26047;-85